Accueil
METAR-TAF:

METAR-TAF

Aéroports :

Capo Mele

Andora, Italie

latitude: 43-57N, longitude: 008-10E, altitude: 220 m

Observation

Le bulletin a été fait il y a 49 minutes, à 17:55 UTC
Vent 17 kt de nord-est
Température 15°C
Humidité 82%
Pression 1010 hPa
Visibilité: 5000 m
Nuages épars à une hauteur de 1800 ft
brume

METAR: LIMU 071755Z 04017KT 5000 BR SCT018 15/12 Q1010 RMK OVC SCT060 QUK 3 QUL 1 E VIS MAR 5 KM VIS MIN 5000

Heure: 20:44 (18:44 UTC)


TAF: absent

Observations et prévisions météorologiques de plus de 4000 aéroports (messages METAR et TAF).

Les stations disponibles sont représentées par des disques jaunes et rouges sur la carte.

Passer la souris dessus pour voir le nom de la station.

Cliquer dessus pour voir les observations et prévisions météorologiques.

Pour changer de carte: cliquez sur les boutons verts avec une croix noire pour zoomer, sur le bouton vert avec un tiret pour effectuer un zoom arrière, ou sur les flèches vertes pour les cartes adjacentes.


METAR-TAF: